Time;durP1;ratioP1;P1;durP2;ratioP2;P2;SDS_P1;SDS_P2;PMS_P1;PMS_P2;Temp;Humidity;BMP_temperature;BMP_pressure;BME280_temperature;BME280_humidity;BME280_pressure;Samples;Min_cycle;Max_cycle;Signal;HPM_P1;HPM_P2
2022/05/01 00:02:04;;;;;;;21.80;13.00;;;3.30;99.90;;;;;;5037451;28;20076;-65
2022/05/01 00:04:30;;;;;;;19.80;12.95;;;3.30;99.90;;;;;;5043627;28;20074;-65
2022/05/01 00:06:56;;;;;;;19.92;12.85;;;3.20;99.90;;;;;;5037246;28;20059;-64
2022/05/01 00:09:22;;;;;;;22.92;13.07;;;3.20;99.90;;;;;;5042866;28;20151;-65
2022/05/01 00:11:48;;;;;;;24.33;14.27;;;3.20;99.90;;;;;;5041822;28;20456;-65
2022/05/01 00:14:14;;;;;;;21.00;13.68;;;3.20;99.90;;;;;;5039207;28;20776;-65
2022/05/01 00:16:40;;;;;;;23.10;15.10;;;3.20;99.90;;;;;;5043678;28;20044;-65
2022/05/01 00:19:08;;;;;;;23.67;14.20;;;3.20;99.90;;;;;;5024202;28;20029;-65
2022/05/01 00:21:35;;;;;;;22.02;14.05;;;3.10;99.90;;;;;;5042813;28;20045;-65
2022/05/01 00:24:00;;;;;;;24.33;14.13;;;3.10;99.90;;;;;;5041345;28;20494;-65
2022/05/01 00:26:27;;;;;;;22.02;14.07;;;3.10;99.90;;;;;;5044803;28;20099;-65
2022/05/01 00:28:53;;;;;;;23.65;13.48;;;3.10;99.90;;;;;;5044409;28;20041;-65
2022/05/01 00:31:19;;;;;;;20.13;13.85;;;3.10;99.90;;;;;;5023964;28;20571;-65
2022/05/01 00:36:29;;;;;;;22.08;14.57;;;3.00;99.90;;;;;;5042826;28;20409;-65
2022/05/01 00:39:03;;;;;;;22.08;14.13;;;3.00;99.90;;;;;;5040601;28;20037;-65
2022/05/01 00:41:31;;;;;;;21.67;13.27;;;2.90;99.90;;;;;;5044510;28;20080;-65
2022/05/01 00:43:56;;;;;;;21.15;13.52;;;2.90;99.90;;;;;;5041391;28;20107;-64
2022/05/01 00:46:23;;;;;;;23.73;13.18;;;2.80;99.90;;;;;;5044045;28;20053;-65
2022/05/01 00:48:49;;;;;;;18.77;12.73;;;2.80;99.90;;;;;;5044157;28;20049;-65
2022/05/01 00:51:16;;;;;;;22.95;14.20;;;2.80;99.90;;;;;;5039228;28;20072;-65
2022/05/01 00:53:43;;;;;;;22.77;13.82;;;2.80;99.90;;;;;;5044998;28;20069;-65
2022/05/01 00:56:09;;;;;;;20.83;14.57;;;2.80;99.90;;;;;;5043199;28;20045;-64
2022/05/01 00:58:35;;;;;;;23.73;13.77;;;2.70;99.90;;;;;;5043718;28;20040;-64
2022/05/01 01:01:01;;;;;;;22.55;13.77;;;2.70;99.90;;;;;;5046116;28;20037;-64
2022/05/01 01:03:26;;;;;;;21.77;13.55;;;2.70;99.90;;;;;;5026764;28;20045;-64
2022/05/01 01:05:52;;;;;;;20.05;13.48;;;2.70;99.90;;;;;;5042440;28;20106;-64
2022/05/01 01:08:18;;;;;;;23.02;14.40;;;2.70;99.90;;;;;;5039809;28;20048;-64
2022/05/01 01:10:43;;;;;;;24.92;14.25;;;2.70;99.90;;;;;;5040659;28;20072;-65
2022/05/01 01:13:09;;;;;;;24.10;14.40;;;2.60;99.90;;;;;;5040416;28;20045;-65
2022/05/01 01:15:35;;;;;;;24.00;14.60;;;2.60;99.90;;;;;;5040657;28;20134;-65
2022/05/01 01:18:01;;;;;;;24.55;14.75;;;2.50;99.90;;;;;;5040552;28;20123;-65
2022/05/01 01:20:28;;;;;;;24.88;15.65;;;2.50;99.90;;;;;;5022258;28;20122;-64
2022/05/01 01:22:56;;;;;;;21.17;14.13;;;2.50;99.90;;;;;;5039051;28;20045;-64
2022/05/01 01:25:31;;;;;;;22.63;14.13;;;2.50;99.90;;;;;;5046077;28;20049;-65
2022/05/01 01:28:05;;;;;;;20.05;13.68;;;2.40;99.90;;;;;;5042231;28;20056;-64
2022/05/01 01:33:17;;;;;;;22.92;14.48;;;2.30;99.90;;;;;;5043029;28;20051;-64
2022/05/01 01:35:45;;;;;;;19.85;13.73;;;2.30;99.90;;;;;;5019523;28;20040;-65
2022/05/01 01:38:11;;;;;;;25.80;14.80;;;2.20;99.90;;;;;;5044034;28;20108;-65
2022/05/01 01:40:48;;;;;;;23.52;15.23;;;2.20;99.90;;;;;;5039577;28;20049;-64
2022/05/01 01:43:17;;;;;;;25.92;15.13;;;2.30;99.90;;;;;;5044062;28;20068;-64
2022/05/01 01:45:43;;;;;;;29.40;16.67;;;2.20;99.90;;;;;;5045047;28;20037;-64
2022/05/01 01:48:13;;;;;;;25.35;16.45;;;2.20;99.90;;;;;;5041595;28;20378;-65
2022/05/01 01:50:40;;;;;;;23.70;15.10;;;2.20;99.90;;;;;;5047186;28;20044;-65
2022/05/01 01:53:07;;;;;;;24.88;15.73;;;2.20;99.90;;;;;;5043657;28;20510;-65
2022/05/01 01:55:32;;;;;;;24.55;15.60;;;2.20;99.90;;;;;;5038405;28;20053;-64
2022/05/01 01:57:58;;;;;;;21.92;14.70;;;2.10;99.90;;;;;;5044655;28;20394;-65
2022/05/01 02:00:24;;;;;;;24.92;15.23;;;2.10;99.90;;;;;;5046058;28;20120;-64
2022/05/01 02:03:00;;;;;;;25.50;15.68;;;2.00;99.90;;;;;;5040775;28;20397;-65
2022/05/01 02:05:27;;;;;;;25.92;16.50;;;2.00;99.90;;;;;;5024667;28;20456;-65
2022/05/01 02:07:53;;;;;;;24.52;15.65;;;2.20;99.90;;;;;;5043657;28;20402;-64
2022/05/01 02:10:20;;;;;;;25.05;16.05;;;1.90;99.90;;;;;;5044310;28;20068;-64
2022/05/01 02:12:45;;;;;;;27.40;16.90;;;2.00;99.90;;;;;;5043664;28;20235;-65
2022/05/01 02:15:11;;;;;;;26.10;16.15;;;1.90;99.90;;;;;;5039100;28;20090;-65
2022/05/01 02:17:39;;;;;;;22.25;15.57;;;1.90;99.90;;;;;;5041699;28;20090;-65
2022/05/01 02:20:06;;;;;;;25.08;16.02;;;1.90;99.90;;;;;;5038987;28;20120;-64
2022/05/01 02:22:31;;;;;;;28.45;17.55;;;1.80;99.90;;;;;;5037622;28;20087;-64
2022/05/01 02:24:57;;;;;;;25.30;16.02;;;1.80;99.90;;;;;;5038484;28;20405;-64
2022/05/01 02:27:23;;;;;;;24.33;16.10;;;1.80;99.90;;;;;;5040669;28;20052;-64
2022/05/01 02:29:48;;;;;;;27.55;16.60;;;1.80;99.90;;;;;;5036022;28;20095;-64
2022/05/01 02:32:14;;;;;;;27.48;17.33;;;1.70;99.90;;;;;;5040188;28;20043;-64
2022/05/01 02:34:40;;;;;;;25.98;16.42;;;1.70;99.90;;;;;;5048353;28;20045;-64
2022/05/01 02:37:06;;;;;;;25.30;16.38;;;1.80;99.90;;;;;;5048432;28;20080;-64
2022/05/01 02:39:33;;;;;;;28.55;16.33;;;1.70;99.90;;;;;;5048075;28;20049;-64
2022/05/01 02:41:59;;;;;;;26.70;16.70;;;1.70;99.90;;;;;;5048251;28;20040;-64
2022/05/01 02:44:28;;;;;;;24.67;15.77;;;1.60;99.90;;;;;;5046255;28;20037;-65
2022/05/01 02:46:55;;;;;;;25.65;16.27;;;1.60;99.90;;;;;;5043953;28;20072;-64
2022/05/01 02:49:22;;;;;;;29.52;17.02;;;1.50;99.90;;;;;;5026288;28;20494;-65
2022/05/01 02:51:48;;;;;;;25.80;16.23;;;1.50;99.90;;;;;;5048633;28;20045;-64
2022/05/01 02:54:14;;;;;;;30.50;17.20;;;1.50;99.90;;;;;;5043975;28;20287;-64
2022/05/01 02:56:40;;;;;;;31.00;18.15;;;1.50;99.90;;;;;;5046055;28;20041;-64
2022/05/01 02:59:09;;;;;;;31.75;17.35;;;1.50;99.90;;;;;;5047191;28;20192;-64
2022/05/01 03:01:36;;;;;;;29.98;17.02;;;1.50;99.90;;;;;;5046610;28;20087;-66
2022/05/01 03:04:02;;;;;;;29.08;17.00;;;1.50;99.90;;;;;;5047114;28;20041;-64
2022/05/01 03:06:28;;;;;;;29.70;16.13;;;1.50;99.90;;;;;;5046651;28;20048;-65
2022/05/01 03:08:54;;;;;;;25.05;15.48;;;1.40;99.90;;;;;;5025408;28;20064;-64
2022/05/01 03:11:20;;;;;;;26.10;14.73;;;1.40;99.90;;;;;;5043480;28;20041;-64
2022/05/01 03:13:46;;;;;;;25.35;14.93;;;1.30;99.90;;;;;;5039015;28;20044;-64
2022/05/01 03:16:12;;;;;;;25.48;14.38;;;1.30;99.90;;;;;;5045253;28;20130;-64
2022/05/01 03:24:06;;;;;;;26.85;16.45;;;1.20;99.90;;;;;;5042663;28;20141;-64
2022/05/01 03:26:32;;;;;;;24.88;14.30;;;1.20;99.90;;;;;;5047915;28;20076;-64
2022/05/01 03:28:58;;;;;;;25.30;14.73;;;1.20;99.90;;;;;;5046089;28;20513;-64
2022/05/01 03:31:27;;;;;;;25.55;14.77;;;1.20;99.90;;;;;;5044824;28;20407;-64
2022/05/01 03:33:54;;;;;;;24.02;15.02;;;1.20;99.90;;;;;;5047025;28;20375;-64
2022/05/01 03:36:21;;;;;;;21.80;14.25;;;1.20;99.90;;;;;;5048570;28;20519;-64
2022/05/01 03:38:47;;;;;;;23.60;14.48;;;1.10;99.90;;;;;;5044530;28;20085;-64
2022/05/01 03:41:14;;;;;;;23.80;13.82;;;1.20;99.90;;;;;;5043300;28;20047;-64
2022/05/01 03:43:40;;;;;;;27.98;15.32;;;1.10;99.90;;;;;;5046565;28;20052;-66
2022/05/01 03:46:06;;;;;;;23.63;14.15;;;1.10;99.90;;;;;;5041449;28;20108;-64
2022/05/01 03:48:32;;;;;;;24.70;15.05;;;1.10;99.90;;;;;;5021022;28;20427;-64
2022/05/01 03:50:58;;;;;;;24.75;14.40;;;1.10;99.90;;;;;;5033573;28;20047;-64
2022/05/01 03:53:28;;;;;;;24.52;14.88;;;1.00;99.90;;;;;;5033346;28;20128;-64
2022/05/01 03:55:54;;;;;;;21.50;14.40;;;1.00;99.90;;;;;;5048531;28;20045;-64
2022/05/01 03:58:20;;;;;;;22.45;14.70;;;1.00;99.90;;;;;;5042573;28;20490;-64
2022/05/01 04:00:48;;;;;;;23.88;14.48;;;1.00;99.90;;;;;;5042638;28;20053;-64
2022/05/01 04:03:20;;;;;;;24.88;14.65;;;1.00;99.90;;;;;;5045337;28;20045;-66
2022/05/01 04:05:46;;;;;;;23.80;14.75;;;1.00;99.90;;;;;;5023348;28;20067;-64
2022/05/01 04:08:12;;;;;;;20.02;13.23;;;1.00;99.90;;;;;;5051406;28;20045;-64
2022/05/01 04:10:39;;;;;;;19.95;13.55;;;1.10;99.90;;;;;;5049818;28;20049;-64
2022/05/01 04:13:05;;;;;;;23.27;13.25;;;1.10;99.90;;;;;;5043749;28;20096;-64
2022/05/01 04:15:31;;;;;;;22.10;13.13;;;1.10;99.90;;;;;;5049287;28;20049;-64
2022/05/01 04:17:58;;;;;;;19.48;13.23;;;1.10;99.90;;;;;;5049840;28;20052;-64
2022/05/01 04:20:25;;;;;;;20.13;12.68;;;1.10;99.90;;;;;;5050041;28;20091;-64
2022/05/01 04:22:51;;;;;;;20.27;12.63;;;1.10;99.90;;;;;;5050479;28;20049;-64
2022/05/01 04:25:17;;;;;;;22.27;13.63;;;1.20;99.90;;;;;;5051621;28;20271;-64
2022/05/01 04:27:45;;;;;;;21.35;13.65;;;1.20;99.90;;;;;;5049538;28;20078;-64
2022/05/01 04:30:12;;;;;;;19.08;12.25;;;1.20;99.90;;;;;;5050356;28;20041;-64
2022/05/01 04:32:48;;;;;;;19.52;12.35;;;1.30;99.90;;;;;;5033976;28;20106;-64
2022/05/01 04:35:19;;;;;;;21.80;13.60;;;1.30;99.90;;;;;;5050400;28;20103;-64
2022/05/01 04:37:45;;;;;;;18.95;12.98;;;1.50;99.90;;;;;;5051462;28;20682;-64
2022/05/01 04:40:11;;;;;;;17.23;11.63;;;1.60;99.90;;;;;;5048400;28;20033;-67
2022/05/01 04:42:37;;;;;;;18.48;12.80;;;1.70;99.90;;;;;;5050602;28;20068;-64
2022/05/01 04:45:04;;;;;;;19.67;13.73;;;2.10;99.90;;;;;;5049896;28;20080;-64
2022/05/01 04:47:29;;;;;;;20.00;12.20;;;2.30;99.90;;;;;;5046693;28;20052;-65
2022/05/01 04:49:58;;;;;;;20.02;12.68;;;2.70;99.90;;;;;;5031029;28;20041;-64
2022/05/01 04:52:23;;;;;;;19.60;12.35;;;3.90;99.90;;;;;;5051615;28;20072;-64
2022/05/01 04:54:49;;;;;;;20.13;11.70;;;3.80;99.90;;;;;;5050370;28;20103;-64
2022/05/01 04:57:15;;;;;;;17.48;10.63;;;4.50;99.90;;;;;;5051277;28;20409;-64
2022/05/01 04:59:41;;;;;;;17.20;10.88;;;5.00;99.90;;;;;;5049589;28;20044;-64
2022/05/01 05:02:07;;;;;;;16.58;10.38;;;5.60;99.90;;;;;;5051165;28;20044;-65
2022/05/01 05:04:32;;;;;;;15.25;10.10;;;6.30;99.90;;;;;;5050902;28;20049;-64
2022/05/01 05:06:58;;;;;;;15.45;10.02;;;6.30;99.90;;;;;;5013431;28;20054;-64
2022/05/01 05:12:09;;;;;;;15.02;9.68;;;7.20;99.90;;;;;;5032315;28;20417;-64
2022/05/01 05:14:35;;;;;;;12.25;8.55;;;8.00;99.90;;;;;;5025326;28;20053;-65
2022/05/01 05:17:01;;;;;;;10.90;6.78;;;8.70;99.90;;;;;;5012805;28;20077;-64
2022/05/01 05:19:27;;;;;;;11.07;6.80;;;9.10;99.90;;;;;;5029271;28;20068;-64
2022/05/01 05:21:53;;;;;;;8.45;5.45;;;9.00;99.90;;;;;;5020332;28;20055;-65
2022/05/01 05:24:19;;;;;;;7.38;4.80;;;8.80;99.90;;;;;;5043586;28;20421;-64
2022/05/01 05:26:45;;;;;;;7.78;4.45;;;8.40;99.90;;;;;;5020914;28;20080;-65
2022/05/01 05:29:11;;;;;;;7.43;4.63;;;8.10;99.90;;;;;;5036794;28;20033;-64
2022/05/01 05:31:36;;;;;;;7.35;4.57;;;7.90;99.90;;;;;;5034276;28;20034;-64
2022/05/01 05:34:02;;;;;;;8.15;4.68;;;7.80;99.90;;;;;;5033525;28;20520;-64
2022/05/01 05:36:28;;;;;;;8.50;5.22;;;7.80;99.90;;;;;;5018217;28;20037;-64
2022/05/01 05:38:53;;;;;;;7.70;4.63;;;8.00;99.90;;;;;;5018956;28;20366;-64
2022/05/01 05:41:19;;;;;;;7.78;5.30;;;7.80;99.90;;;;;;5031158;28;20040;-65
2022/05/01 05:43:45;;;;;;;7.60;4.75;;;7.70;99.90;;;;;;5022472;28;20053;-64
2022/05/01 05:46:10;;;;;;;8.32;5.30;;;7.60;99.90;;;;;;5017636;28;20045;-64
2022/05/01 05:48:37;;;;;;;8.77;5.88;;;7.50;99.90;;;;;;5037860;28;20049;-64
2022/05/01 05:51:07;;;;;;;10.48;5.28;;;7.40;99.90;;;;;;5011716;28;20106;-64
2022/05/01 05:53:32;;;;;;;8.10;4.95;;;7.30;99.90;;;;;;5028106;28;20130;-64
2022/05/01 05:55:59;;;;;;;8.45;5.10;;;7.20;99.90;;;;;;5032727;28;20130;-64
2022/05/01 05:58:24;;;;;;;8.10;5.13;;;7.10;99.90;;;;;;5028296;28;20242;-64
2022/05/01 06:00:50;;;;;;;8.70;5.60;;;7.10;99.90;;;;;;5028597;28;20565;-64
2022/05/01 06:03:16;;;;;;;8.88;5.30;;;7.10;99.90;;;;;;5018337;28;20403;-64
2022/05/01 06:05:42;;;;;;;10.40;5.93;;;7.20;99.90;;;;;;5044524;28;20395;-64
2022/05/01 06:08:09;;;;;;;9.55;6.00;;;7.10;99.90;;;;;;5036325;28;20052;-65
2022/05/01 06:10:35;;;;;;;10.55;5.97;;;8.20;99.90;;;;;;5029566;28;20052;-64
2022/05/01 06:13:00;;;;;;;9.93;5.95;;;7.10;99.90;;;;;;5029664;28;20045;-64
2022/05/01 06:15:26;;;;;;;11.95;6.13;;;7.20;99.90;;;;;;5033965;28;20041;-64
2022/05/01 06:17:52;;;;;;;11.25;6.78;;;7.30;99.90;;;;;;5023823;28;20064;-64
2022/05/01 06:20:18;;;;;;;14.90;7.07;;;7.20;99.90;;;;;;5045708;28;20037;-65
2022/05/01 06:22:44;;;;;;;11.43;7.55;;;7.50;99.90;;;;;;5046729;28;20047;-65
2022/05/01 06:25:09;;;;;;;12.90;7.80;;;7.50;99.90;;;;;;5026726;28;20041;-65
2022/05/01 06:27:35;;;;;;;12.10;7.53;;;7.70;99.90;;;;;;5047436;28;20057;-64
2022/05/01 06:30:01;;;;;;;11.15;7.40;;;9.50;99.90;;;;;;5046904;28;20044;-64
2022/05/01 06:32:27;;;;;;;12.23;7.30;;;11.60;99.90;;;;;;5048133;28;20036;-65
2022/05/01 06:34:53;;;;;;;12.13;7.38;;;12.60;99.90;;;;;;5044750;28;20102;-64
2022/05/01 06:37:19;;;;;;;11.45;6.78;;;13.60;99.90;;;;;;5045120;28;20588;-64
2022/05/01 06:39:44;;;;;;;11.77;7.28;;;13.70;99.90;;;;;;5028240;28;20049;-64
2022/05/01 06:42:11;;;;;;;10.75;6.78;;;14.00;99.90;;;;;;5046758;28;20106;-65
2022/05/01 06:44:37;;;;;;;11.38;7.05;;;14.80;99.90;;;;;;5038675;28;20064;-64
2022/05/01 06:47:03;;;;;;;11.73;6.75;;;15.70;99.90;;;;;;5043236;28;20983;-65
2022/05/01 06:49:28;;;;;;;11.90;6.78;;;15.20;99.90;;;;;;5047668;28;20120;-65
2022/05/01 06:51:54;;;;;;;13.25;7.18;;;14.80;99.90;;;;;;5043778;28;20066;-64
2022/05/01 06:54:20;;;;;;;10.10;6.25;;;14.60;99.90;;;;;;5040778;28;20041;-64
2022/05/01 06:56:45;;;;;;;10.45;6.60;;;14.50;99.90;;;;;;5048196;28;20505;-64
2022/05/01 06:59:11;;;;;;;10.02;5.85;;;14.20;99.90;;;;;;5046681;28;20044;-64
2022/05/01 07:01:37;;;;;;;9.65;6.32;;;13.90;99.90;;;;;;5043892;28;20501;-65
2022/05/01 07:04:02;;;;;;;10.80;6.68;;;13.60;99.90;;;;;;5042577;28;20768;-64
2022/05/01 07:06:28;;;;;;;9.88;7.07;;;13.10;99.90;;;;;;5030692;28;20203;-64
2022/05/01 07:08:54;;;;;;;11.60;7.40;;;12.80;99.90;;;;;;5045470;28;20052;-65
2022/05/01 07:11:19;;;;;;;14.40;7.03;;;12.60;99.90;;;;;;5045889;28;20048;-64
2022/05/01 07:13:45;;;;;;;11.20;6.97;;;12.40;99.90;;;;;;5047332;28;20041;-65
2022/05/01 07:16:11;;;;;;;10.52;6.15;;;12.20;99.90;;;;;;5043913;28;20052;-64
2022/05/01 07:18:36;;;;;;;10.88;6.97;;;12.00;99.90;;;;;;5045122;28;20127;-64
2022/05/01 07:21:02;;;;;;;9.38;6.43;;;11.90;99.90;;;;;;5047617;28;20040;-65
2022/05/01 07:23:28;;;;;;;12.27;7.20;;;12.00;99.90;;;;;;5044910;28;20456;-65
2022/05/01 07:25:54;;;;;;;10.80;6.60;;;12.10;99.90;;;;;;5041129;28;20145;-64
2022/05/01 07:28:19;;;;;;;13.45;7.00;;;12.40;99.90;;;;;;5038201;28;20410;-65
2022/05/01 07:30:45;;;;;;;9.77;6.15;;;12.70;99.90;;;;;;5039305;28;20503;-65
2022/05/01 07:33:11;;;;;;;11.07;5.50;;;13.00;99.90;;;;;;5036800;28;20170;-65
2022/05/01 07:35:37;;;;;;;10.80;5.68;;;13.30;99.90;;;;;;5039263;28;20482;-66
2022/05/01 07:38:03;;;;;;;9.70;4.70;;;13.60;99.90;;;;;;5039987;28;20049;-66
2022/05/01 07:40:29;;;;;;;11.40;5.35;;;13.60;99.90;;;;;;5040498;28;20471;-65
2022/05/01 07:42:55;;;;;;;9.98;5.00;;;13.40;99.90;;;;;;5035416;28;20044;-65
2022/05/01 07:45:20;;;;;;;8.63;5.32;;;13.40;99.90;;;;;;5040025;28;20478;-67
2022/05/01 07:47:46;;;;;;;13.60;5.50;;;13.40;99.90;;;;;;5042014;28;20051;-65
2022/05/01 07:50:12;;;;;;;10.38;4.68;;;13.90;99.90;;;;;;5041729;28;20187;-65
2022/05/01 07:52:38;;;;;;;11.55;5.50;;;14.10;99.90;;;;;;5030554;28;20084;-65
2022/05/01 07:55:05;;;;;;;12.90;5.70;;;14.10;99.90;;;;;;5028157;28;20637;-65
2022/05/01 07:57:30;;;;;;;7.53;4.22;;;14.00;99.90;;;;;;5027562;28;20493;-65
2022/05/01 07:59:56;;;;;;;10.32;5.68;;;13.90;99.90;;;;;;5040625;28;20044;-66
2022/05/01 08:02:22;;;;;;;9.43;5.35;;;13.90;99.90;;;;;;5037482;28;20072;-65
2022/05/01 08:04:48;;;;;;;9.57;5.20;;;13.80;99.90;;;;;;5036979;28;20068;-65
2022/05/01 08:07:15;;;;;;;9.30;6.25;;;14.00;99.90;;;;;;5033190;28;20055;-66
2022/05/01 08:09:41;;;;;;;10.02;5.80;;;14.00;99.90;;;;;;5036992;28;20063;-66
2022/05/01 08:12:07;;;;;;;11.35;6.07;;;14.10;99.90;;;;;;5043197;28;20497;-66
2022/05/01 08:14:32;;;;;;;8.88;5.25;;;14.00;99.90;;;;;;5034266;28;20045;-65
2022/05/01 08:16:58;;;;;;;9.88;5.82;;;14.00;99.90;;;;;;5034622;28;20466;-66
2022/05/01 08:22:08;;;;;;;9.48;5.20;;;14.20;99.90;;;;;;5043445;28;20103;-66
2022/05/01 08:24:34;;;;;;;7.95;4.97;;;14.20;99.90;;;;;;5035429;28;20045;-66
2022/05/01 08:27:07;;;;;;;9.20;4.90;;;13.90;99.90;;;;;;5033671;28;20135;-65
2022/05/01 08:29:39;;;;;;;9.85;5.40;;;13.60;99.90;;;;;;5041453;28;20045;-66
2022/05/01 08:32:06;;;;;;;7.85;4.88;;;13.40;99.90;;;;;;5034542;28;20048;-66
2022/05/01 08:34:32;;;;;;;9.13;4.80;;;13.10;99.90;;;;;;5035883;28;20436;-66
2022/05/01 08:36:57;;;;;;;9.15;4.50;;;12.90;99.90;;;;;;5030303;28;20052;-66
2022/05/01 08:39:23;;;;;;;9.73;4.53;;;12.80;99.90;;;;;;5035730;28;20175;-66
2022/05/01 08:41:49;;;;;;;7.85;4.30;;;13.00;99.90;;;;;;5035478;28;20048;-66
2022/05/01 08:44:19;;;;;;;9.70;4.53;;;13.30;99.90;;;;;;5032180;28;20057;-65
2022/05/01 08:46:56;;;;;;;7.38;4.35;;;13.20;99.90;;;;;;5035449;28;20041;-66
2022/05/01 08:49:22;;;;;;;6.80;3.85;;;13.30;99.90;;;;;;5042955;28;20166;-66
2022/05/01 08:51:50;;;;;;;9.02;3.92;;;13.50;99.90;;;;;;5038524;28;20060;-66
2022/05/01 08:54:16;;;;;;;9.52;4.70;;;13.70;99.90;;;;;;5037892;28;20049;-65
2022/05/01 08:56:43;;;;;;;9.07;4.07;;;13.90;99.90;;;;;;5044668;28;20045;-65
2022/05/01 08:59:11;;;;;;;8.57;4.25;;;13.90;99.90;;;;;;5040833;28;20124;-66
2022/05/01 09:01:38;;;;;;;8.32;3.67;;;14.20;99.90;;;;;;5050488;28;20077;-65
2022/05/01 09:04:06;;;;;;;8.35;4.10;;;14.20;99.90;;;;;;5050515;28;20049;-65
2022/05/01 09:06:39;;;;;;;9.02;4.30;;;14.30;99.90;;;;;;5049501;28;20060;-66
2022/05/01 09:09:06;;;;;;;8.90;4.30;;;14.40;99.90;;;;;;5057501;28;20049;-66
2022/05/01 09:14:16;;;;;;;8.23;4.20;;;14.40;99.90;;;;;;5030375;28;20047;-66
2022/05/01 09:17:02;;;;;;;9.32;4.13;;;14.50;99.90;;;;;;5045824;28;20397;-66
2022/05/01 09:19:31;;;;;;;8.80;3.97;;;14.60;99.90;;;;;;5038597;28;20091;-66
2022/05/01 09:21:56;;;;;;;9.32;4.47;;;14.60;99.90;;;;;;5040387;28;20033;-66
2022/05/01 09:24:29;;;;;;;8.02;4.57;;;14.60;99.90;;;;;;5044980;28;20099;-65
2022/05/01 09:26:56;;;;;;;8.00;4.47;;;14.60;99.90;;;;;;5050818;28;20460;-66
2022/05/01 09:29:23;;;;;;;10.77;4.65;;;14.50;99.90;;;;;;5039044;28;20049;-66
2022/05/01 09:31:55;;;;;;;8.35;4.80;;;14.50;99.90;;;;;;5023542;28;20053;-66
2022/05/01 09:34:29;;;;;;;8.55;4.03;;;14.40;99.90;;;;;;5039966;28;20057;-66
2022/05/01 09:36:59;;;;;;;9.98;4.63;;;14.60;99.90;;;;;;5037966;28;20477;-66
2022/05/01 09:39:31;;;;;;;7.53;4.18;;;14.70;99.90;;;;;;5035541;28;20388;-66
2022/05/01 09:42:16;;;;;;;7.88;4.32;;;14.90;99.90;;;;;;5043094;28;20046;-66
2022/05/01 09:44:42;;;;;;;7.47;4.22;;;15.10;99.90;;;;;;5043461;28;20429;-66
2022/05/01 09:47:08;;;;;;;9.80;3.70;;;15.30;99.90;;;;;;5040427;28;20041;-67
2022/05/01 09:49:51;;;;;;;9.55;4.13;;;15.40;99.90;;;;;;5041888;28;20049;-66
2022/05/01 09:52:17;;;;;;;10.65;3.70;;;15.40;99.90;;;;;;5041282;28;20498;-66
2022/05/01 09:55:02;;;;;;;8.25;3.80;;;15.30;99.90;;;;;;5042538;28;20052;-66
2022/05/01 09:57:28;;;;;;;7.88;4.03;;;15.20;99.90;;;;;;5040235;28;20041;-66
2022/05/01 09:59:54;;;;;;;8.82;4.30;;;15.10;99.90;;;;;;5023635;28;20053;-66
2022/05/01 10:02:29;;;;;;;7.43;4.25;;;14.90;99.90;;;;;;5042516;28;20565;-67
2022/05/01 10:05:02;;;;;;;11.13;4.07;;;14.80;99.90;;;;;;5036421;28;20065;-66
2022/05/01 10:07:35;;;;;;;7.95;3.88;;;14.80;99.90;;;;;;5033667;28;20072;-66
2022/05/01 10:10:05;;;;;;;7.63;3.80;;;15.00;99.90;;;;;;5031993;28;20048;-66
2022/05/01 10:12:41;;;;;;;6.57;3.97;;;15.20;99.90;;;;;;5015073;28;20052;-66
2022/05/01 10:15:08;;;;;;;8.88;4.00;;;15.50;99.90;;;;;;5031228;28;20055;-66
2022/05/01 10:17:35;;;;;;;9.45;4.45;;;15.50;99.90;;;;;;5034897;28;20041;-66
2022/05/01 10:20:03;;;;;;;9.52;4.65;;;15.40;99.90;;;;;;5035337;28;21381;-66
2022/05/01 10:22:35;;;;;;;9.15;4.10;;;15.40;99.90;;;;;;5033638;28;20882;-66
2022/05/01 10:25:03;;;;;;;10.05;4.55;;;15.40;99.90;;;;;;5031491;28;20045;-66
2022/05/01 10:27:35;;;;;;;7.63;4.28;;;15.50;99.90;;;;;;5028690;28;20143;-66
2022/05/01 10:33:01;;;;;;;9.88;4.57;;;15.30;99.90;;;;;;5033743;28;20766;-66
2022/05/01 10:36:04;;;;;;;10.38;4.68;;;15.20;99.90;;;;;;5034715;28;20453;-67
2022/05/01 10:38:36;;;;;;;9.98;4.22;;;15.10;99.90;;;;;;5036047;28;20195;-67
2022/05/01 10:41:04;;;;;;;7.65;4.18;;;14.90;99.90;;;;;;5027142;28;20628;-66
2022/05/01 10:43:39;;;;;;;8.50;4.70;;;14.80;99.90;;;;;;5031444;28;20572;-66
2022/05/01 10:46:24;;;;;;;9.32;4.38;;;14.80;99.90;;;;;;5028272;28;20399;-67
2022/05/01 10:48:50;;;;;;;10.38;4.18;;;14.80;99.90;;;;;;5027493;28;20132;-66
2022/05/01 10:51:34;;;;;;;8.68;4.30;;;14.80;99.90;;;;;;5030288;28;20160;-66
2022/05/01 10:54:17;;;;;;;7.90;4.03;;;15.00;99.90;;;;;;5031048;28;20492;-67
2022/05/01 10:57:07;;;;;;;8.63;4.57;;;15.00;99.90;;;;;;5035935;28;20597;-67
2022/05/01 10:59:47;;;;;;;7.03;3.95;;;15.20;99.90;;;;;;5028984;28;20045;-66
2022/05/01 11:02:24;;;;;;;6.90;4.10;;;15.40;99.90;;;;;;5028394;28;20125;-66
2022/05/01 11:04:52;;;;;;;8.25;4.53;;;15.60;99.90;;;;;;5026117;28;21212;-66
2022/05/01 11:07:19;;;;;;;9.50;4.95;;;15.80;99.90;;;;;;5024710;28;20048;-66
2022/05/01 11:09:47;;;;;;;8.10;4.13;;;16.00;99.90;;;;;;5025132;28;20049;-67
2022/05/01 11:12:15;;;;;;;9.40;4.20;;;16.20;99.20;;;;;;5023690;28;20059;-66
2022/05/01 11:15:09;;;;;;;7.60;3.47;;;16.10;99.50;;;;;;5030077;28;20498;-65
2022/05/01 11:17:53;;;;;;;6.80;3.80;;;15.80;99.40;;;;;;5008640;28;20061;-66
2022/05/01 11:20:19;;;;;;;8.32;3.78;;;15.60;99.10;;;;;;5031309;28;20049;-66
2022/05/01 11:22:45;;;;;;;6.50;3.75;;;15.60;99.80;;;;;;5030687;28;20462;-66
2022/05/01 11:25:17;;;;;;;7.82;3.97;;;15.70;99.60;;;;;;5038908;28;20048;-66
2022/05/01 11:27:53;;;;;;;9.13;3.92;;;15.90;99.90;;;;;;5026917;28;20057;-66
2022/05/01 11:30:29;;;;;;;8.57;3.58;;;16.20;99.50;;;;;;5007548;28;20142;-68
2022/05/01 11:33:08;;;;;;;8.95;4.13;;;16.50;99.00;;;;;;5031115;28;20054;-66
2022/05/01 11:35:56;;;;;;;8.18;4.03;;;16.70;98.80;;;;;;5025678;28;20073;-66
2022/05/01 11:38:33;;;;;;;7.70;3.88;;;16.60;97.90;;;;;;5006208;28;20517;-66
2022/05/01 11:41:01;;;;;;;8.50;3.58;;;16.70;97.80;;;;;;5024439;28;20131;-66
2022/05/01 11:43:31;;;;;;;6.68;3.90;;;16.90;97.80;;;;;;5032091;28;20056;-67
2022/05/01 11:45:58;;;;;;;7.97;3.92;;;16.90;96.80;;;;;;5025142;28;20482;-66
2022/05/01 11:48:25;;;;;;;8.15;4.00;;;16.90;96.90;;;;;;5027092;28;20048;-66
2022/05/01 11:50:52;;;;;;;8.00;4.03;;;16.80;97.80;;;;;;5024600;28;20123;-66
2022/05/01 11:53:29;;;;;;;8.15;4.25;;;16.70;97.90;;;;;;5025475;28;20307;-65
2022/05/01 12:04:33;;;;;;;9.35;4.30;;;16.40;96.20;;;;;;5027873;28;20053;-67
2022/05/01 12:07:11;;;;;;;7.93;4.00;;;16.10;96.40;;;;;;5027778;28;20048;-66
2022/05/01 12:09:38;;;;;;;11.85;4.07;;;15.80;96.60;;;;;;5029944;28;20453;-67
2022/05/01 12:12:10;;;;;;;6.35;3.45;;;15.50;96.70;;;;;;5031923;28;20091;-66
2022/05/01 12:14:36;;;;;;;;;;;15.30;96.50;;;;;;5033601;28;20063;-66
2022/05/01 12:17:09;;;;;;;7.35;3.53;;;15.20;96.90;;;;;;5039575;28;20167;-67
2022/05/01 12:19:40;;;;;;;8.35;3.83;;;15.10;97.70;;;;;;5024327;28;20143;-67
2022/05/01 12:22:11;;;;;;;7.95;3.88;;;15.00;98.00;;;;;;5029887;28;20134;-67
2022/05/01 12:24:37;;;;;;;6.88;3.78;;;15.00;97.20;;;;;;5036199;28;20068;-66
2022/05/01 12:27:04;;;;;;;7.95;3.35;;;15.10;97.40;;;;;;5041346;28;20098;-67
2022/05/01 12:29:30;;;;;;;8.50;3.70;;;15.30;96.60;;;;;;5035573;28;20052;-66
2022/05/01 12:32:10;;;;;;;8.43;4.03;;;15.60;97.50;;;;;;5030672;28;20048;-67
2022/05/01 12:34:48;;;;;;;11.07;3.67;;;15.80;97.90;;;;;;5020125;28;20087;-67
2022/05/01 12:37:16;;;;;;;8.40;4.43;;;16.00;96.90;;;;;;5042126;28;20051;-67
2022/05/01 12:39:43;;;;;;;7.43;3.70;;;16.10;97.60;;;;;;5038875;28;20449;-66
2022/05/01 12:45:20;;;;;;;6.70;3.97;;;16.50;97.50;;;;;;5030323;28;20080;-67
2022/05/01 12:47:51;;;;;;;7.80;3.55;;;16.80;96.90;;;;;;5043346;28;20174;-67
2022/05/01 12:50:19;;;;;;;7.20;3.63;;;16.90;96.30;;;;;;5035319;28;20203;-67
2022/05/01 12:52:50;;;;;;;8.18;3.90;;;16.90;94.80;;;;;;5044297;28;20501;-67
2022/05/01 12:55:36;;;;;;;8.55;3.65;;;16.70;95.40;;;;;;5047114;28;20075;-67
2022/05/01 12:58:06;;;;;;;7.95;3.85;;;16.70;95.60;;;;;;5033698;28;20080;-67
2022/05/01 13:00:33;;;;;;;9.00;4.23;;;16.50;94.80;;;;;;5035664;28;20099;-68
2022/05/01 13:03:36;;;;;;;7.78;3.75;;;16.20;93.60;;;;;;5033485;28;20080;-67
2022/05/01 13:06:11;;;;;;;8.18;3.40;;;15.90;93.80;;;;;;5034541;28;20335;-67
2022/05/01 13:08:52;;;;;;;7.15;3.13;;;15.70;94.40;;;;;;5034763;28;20045;-67
2022/05/01 13:11:28;;;;;;;9.70;3.85;;;15.70;94.80;;;;;;5026149;28;20056;-67
2022/05/01 13:13:58;;;;;;;7.03;3.35;;;15.80;95.00;;;;;;5031281;28;20049;-67
2022/05/01 13:16:39;;;;;;;7.53;3.35;;;15.90;95.00;;;;;;5034365;28;20040;-68
2022/05/01 13:19:08;;;;;;;;;;;15.90;95.50;;;;;;5033449;28;20489;-69
2022/05/01 13:21:37;;;;;;;6.45;2.70;;;15.90;95.40;;;;;;5011632;28;20282;-67
2022/05/01 13:24:03;;;;;;;6.95;3.10;;;15.80;94.50;;;;;;5031335;28;20569;-67